sensor_id;sensor_type;location;lat;lon;timestamp;pressure;altitude;pressure_sealevel;temperature;humidity
23176;BME280;19910;42.652;23.332;2022-10-26T00:02:10;95094.53;;;15.36;69.13
23176;BME280;19910;42.652;23.332;2022-10-26T00:04:37;95092.94;;;15.35;69.09
23176;BME280;19910;42.652;23.332;2022-10-26T00:07:03;95087.97;;;15.25;69.50
23176;BME280;19910;42.652;23.332;2022-10-26T00:09:30;95097.09;;;15.17;69.59
23176;BME280;19910;42.652;23.332;2022-10-26T00:11:57;95095.06;;;15.14;69.91
23176;BME280;19910;42.652;23.332;2022-10-26T00:14:25;95092.78;;;15.04;69.99
23176;BME280;19910;42.652;23.332;2022-10-26T00:16:52;95090.53;;;14.93;70.37
23176;BME280;19910;42.652;23.332;2022-10-26T00:19:20;95102.50;;;14.89;70.81
23176;BME280;19910;42.652;23.332;2022-10-26T00:21:46;95092.13;;;14.82;70.79
23176;BME280;19910;42.652;23.332;2022-10-26T00:24:13;95090.22;;;14.83;70.75
23176;BME280;19910;42.652;23.332;2022-10-26T00:26:40;95088.84;;;14.77;71.03
23176;BME280;19910;42.652;23.332;2022-10-26T00:29:09;95097.81;;;14.77;71.07
23176;BME280;19910;42.652;23.332;2022-10-26T00:31:37;95097.13;;;14.92;70.30
23176;BME280;19910;42.652;23.332;2022-10-26T00:34:04;95099.50;;;14.94;70.06
23176;BME280;19910;42.652;23.332;2022-10-26T00:36:33;95101.34;;;15.02;69.79
23176;BME280;19910;42.652;23.332;2022-10-26T00:38:59;95099.94;;;15.08;69.83
23176;BME280;19910;42.652;23.332;2022-10-26T00:41:29;95096.06;;;15.09;69.91
23176;BME280;19910;42.652;23.332;2022-10-26T00:43:57;95098.66;;;15.18;69.39
23176;BME280;19910;42.652;23.332;2022-10-26T00:46:25;95098.81;;;15.09;69.35
23176;BME280;19910;42.652;23.332;2022-10-26T00:48:55;95092.88;;;15.07;69.33
23176;BME280;19910;42.652;23.332;2022-10-26T00:51:25;95093.81;;;15.11;69.27
23176;BME280;19910;42.652;23.332;2022-10-26T00:53:54;95094.47;;;15.08;69.23
23176;BME280;19910;42.652;23.332;2022-10-26T00:56:22;95090.41;;;15.02;69.72
23176;BME280;19910;42.652;23.332;2022-10-26T00:58:49;95085.03;;;15.06;69.30
23176;BME280;19910;42.652;23.332;2022-10-26T01:01:17;95088.72;;;14.98;69.47
23176;BME280;19910;42.652;23.332;2022-10-26T01:03:44;95082.75;;;15.20;68.89
23176;BME280;19910;42.652;23.332;2022-10-26T01:06:11;95078.22;;;15.12;69.12
23176;BME280;19910;42.652;23.332;2022-10-26T01:08:40;95088.03;;;15.01;69.68
23176;BME280;19910;42.652;23.332;2022-10-26T01:11:11;95085.31;;;15.01;69.42
23176;BME280;19910;42.652;23.332;2022-10-26T01:13:38;95073.63;;;14.88;70.00
23176;BME280;19910;42.652;23.332;2022-10-26T01:16:18;95075.28;;;14.92;69.81
23176;BME280;19910;42.652;23.332;2022-10-26T01:18:56;95071.84;;;15.08;69.43
23176;BME280;19910;42.652;23.332;2022-10-26T01:21:39;95068.91;;;15.13;69.13
23176;BME280;19910;42.652;23.332;2022-10-26T01:24:25;95076.53;;;15.07;69.31
23176;BME280;19910;42.652;23.332;2022-10-26T01:27:07;95071.41;;;15.06;69.46
23176;BME280;19910;42.652;23.332;2022-10-26T01:29:52;95082.31;;;15.06;69.11
23176;BME280;19910;42.652;23.332;2022-10-26T01:32:32;95085.97;;;14.98;69.60
23176;BME280;19910;42.652;23.332;2022-10-26T01:35:06;95081.22;;;14.82;70.11
23176;BME280;19910;42.652;23.332;2022-10-26T01:37:36;95081.03;;;14.75;70.38
23176;BME280;19910;42.652;23.332;2022-10-26T01:40:09;95074.78;;;14.75;70.10
23176;BME280;19910;42.652;23.332;2022-10-26T01:42:43;95076.25;;;14.72;69.88
23176;BME280;19910;42.652;23.332;2022-10-26T01:45:14;95067.38;;;14.87;69.57
23176;BME280;19910;42.652;23.332;2022-10-26T01:47:43;95067.13;;;14.80;69.80
23176;BME280;19910;42.652;23.332;2022-10-26T01:50:12;95061.69;;;14.68;70.10
23176;BME280;19910;42.652;23.332;2022-10-26T01:52:39;95062.50;;;14.56;70.40
23176;BME280;19910;42.652;23.332;2022-10-26T01:55:38;95059.66;;;14.65;70.29
23176;BME280;19910;42.652;23.332;2022-10-26T01:58:12;95063.75;;;14.71;70.16
23176;BME280;19910;42.652;23.332;2022-10-26T02:00:50;95058.50;;;14.78;69.72
23176;BME280;19910;42.652;23.332;2022-10-26T02:03:31;95060.56;;;14.69;70.18
23176;BME280;19910;42.652;23.332;2022-10-26T02:06:05;95064.91;;;14.58;70.78
23176;BME280;19910;42.652;23.332;2022-10-26T02:08:55;95068.09;;;14.60;70.74
23176;BME280;19910;42.652;23.332;2022-10-26T02:11:33;95069.44;;;14.54;70.96
23176;BME280;19910;42.652;23.332;2022-10-26T02:14:07;95061.38;;;14.57;70.84
23176;BME280;19910;42.652;23.332;2022-10-26T02:16:40;95063.75;;;14.71;70.46
23176;BME280;19910;42.652;23.332;2022-10-26T02:19:21;95070.31;;;14.82;70.08
23176;BME280;19910;42.652;23.332;2022-10-26T02:21:54;95071.31;;;14.90;69.82
23176;BME280;19910;42.652;23.332;2022-10-26T02:24:25;95071.91;;;14.83;70.32
23176;BME280;19910;42.652;23.332;2022-10-26T02:26:52;95073.28;;;14.77;70.31
23176;BME280;19910;42.652;23.332;2022-10-26T02:29:22;95073.50;;;14.84;69.90
23176;BME280;19910;42.652;23.332;2022-10-26T02:31:50;95073.03;;;14.82;70.15
23176;BME280;19910;42.652;23.332;2022-10-26T02:34:24;95069.97;;;14.96;69.60
23176;BME280;19910;42.652;23.332;2022-10-26T02:36:56;95075.41;;;14.96;69.51
23176;BME280;19910;42.652;23.332;2022-10-26T02:39:25;95075.56;;;14.87;69.78
23176;BME280;19910;42.652;23.332;2022-10-26T02:41:53;95076.69;;;14.86;69.57
23176;BME280;19910;42.652;23.332;2022-10-26T02:44:24;95071.78;;;14.80;69.92
23176;BME280;19910;42.652;23.332;2022-10-26T02:46:53;95068.28;;;14.67;70.22
23176;BME280;19910;42.652;23.332;2022-10-26T02:49:22;95075.00;;;14.57;70.47
23176;BME280;19910;42.652;23.332;2022-10-26T02:51:52;95084.00;;;14.46;71.29
23176;BME280;19910;42.652;23.332;2022-10-26T02:54:25;95077.84;;;14.49;71.10
23176;BME280;19910;42.652;23.332;2022-10-26T02:56:56;95081.22;;;14.34;71.86
23176;BME280;19910;42.652;23.332;2022-10-26T02:59:28;95077.13;;;14.28;72.26
23176;BME280;19910;42.652;23.332;2022-10-26T03:01:56;95085.16;;;14.12;73.26
23176;BME280;19910;42.652;23.332;2022-10-26T03:04:28;95088.06;;;13.95;74.18
23176;BME280;19910;42.652;23.332;2022-10-26T03:06:55;95082.25;;;13.72;75.59
23176;BME280;19910;42.652;23.332;2022-10-26T03:09:22;95093.19;;;13.51;76.64
23176;BME280;19910;42.652;23.332;2022-10-26T03:11:49;95099.44;;;13.31;78.06
23176;BME280;19910;42.652;23.332;2022-10-26T03:14:16;95113.47;;;13.12;79.06
23176;BME280;19910;42.652;23.332;2022-10-26T03:16:43;95109.75;;;12.96;79.87
23176;BME280;19910;42.652;23.332;2022-10-26T03:19:10;95115.06;;;12.92;80.63
23176;BME280;19910;42.652;23.332;2022-10-26T03:21:38;95120.75;;;12.78;81.01
23176;BME280;19910;42.652;23.332;2022-10-26T03:24:06;95124.66;;;12.60;81.75
23176;BME280;19910;42.652;23.332;2022-10-26T03:26:33;95130.13;;;12.60;82.38
23176;BME280;19910;42.652;23.332;2022-10-26T03:29:00;95132.22;;;12.55;83.19
23176;BME280;19910;42.652;23.332;2022-10-26T03:31:27;95135.66;;;12.43;83.37
23176;BME280;19910;42.652;23.332;2022-10-26T03:33:53;95130.22;;;12.43;83.90
23176;BME280;19910;42.652;23.332;2022-10-26T03:36:20;95130.63;;;12.54;84.32
23176;BME280;19910;42.652;23.332;2022-10-26T03:38:48;95118.75;;;12.67;83.97
23176;BME280;19910;42.652;23.332;2022-10-26T03:41:15;95132.00;;;12.68;84.28
23176;BME280;19910;42.652;23.332;2022-10-26T03:43:42;95133.41;;;12.74;84.30
23176;BME280;19910;42.652;23.332;2022-10-26T03:46:08;95131.47;;;12.75;83.91
23176;BME280;19910;42.652;23.332;2022-10-26T03:48:35;95131.63;;;12.78;83.98
23176;BME280;19910;42.652;23.332;2022-10-26T03:51:02;95130.03;;;12.77;84.06
23176;BME280;19910;42.652;23.332;2022-10-26T03:53:29;95124.44;;;12.74;83.91
23176;BME280;19910;42.652;23.332;2022-10-26T03:55:57;95131.53;;;12.66;83.96
23176;BME280;19910;42.652;23.332;2022-10-26T03:58:24;95135.44;;;12.57;84.63
23176;BME280;19910;42.652;23.332;2022-10-26T04:00:50;95131.31;;;12.71;84.23
23176;BME280;19910;42.652;23.332;2022-10-26T04:03:17;95130.41;;;12.67;84.35
23176;BME280;19910;42.652;23.332;2022-10-26T04:05:44;95128.41;;;12.56;84.66
23176;BME280;19910;42.652;23.332;2022-10-26T04:08:11;95134.31;;;12.49;84.93
23176;BME280;19910;42.652;23.332;2022-10-26T04:10:37;95134.81;;;12.51;85.12
23176;BME280;19910;42.652;23.332;2022-10-26T04:13:06;95138.00;;;12.53;85.17
23176;BME280;19910;42.652;23.332;2022-10-26T04:15:32;95138.31;;;12.52;85.06
23176;BME280;19910;42.652;23.332;2022-10-26T04:18:01;95135.13;;;12.50;84.71
23176;BME280;19910;42.652;23.332;2022-10-26T04:20:29;95140.97;;;12.60;84.52
23176;BME280;19910;42.652;23.332;2022-10-26T04:22:57;95145.38;;;12.73;84.02
23176;BME280;19910;42.652;23.332;2022-10-26T04:25:24;95134.97;;;12.84;83.53
23176;BME280;19910;42.652;23.332;2022-10-26T04:27:51;95128.31;;;12.94;82.51
23176;BME280;19910;42.652;23.332;2022-10-26T04:30:20;95134.41;;;12.91;82.06
23176;BME280;19910;42.652;23.332;2022-10-26T04:32:47;95132.44;;;13.00;81.77
23176;BME280;19910;42.652;23.332;2022-10-26T04:35:13;95129.59;;;12.96;81.90
23176;BME280;19910;42.652;23.332;2022-10-26T04:37:40;95136.75;;;13.01;81.88
23176;BME280;19910;42.652;23.332;2022-10-26T04:40:08;95138.56;;;12.97;82.03
23176;BME280;19910;42.652;23.332;2022-10-26T04:42:40;95137.19;;;13.11;81.93
23176;BME280;19910;42.652;23.332;2022-10-26T04:45:07;95138.59;;;13.18;81.71
23176;BME280;19910;42.652;23.332;2022-10-26T04:47:36;95138.41;;;13.14;81.73
23176;BME280;19910;42.652;23.332;2022-10-26T04:50:04;95142.00;;;13.06;82.19
23176;BME280;19910;42.652;23.332;2022-10-26T04:52:31;95146.50;;;13.02;82.72
23176;BME280;19910;42.652;23.332;2022-10-26T04:54:58;95153.81;;;13.10;82.49
23176;BME280;19910;42.652;23.332;2022-10-26T04:57:24;95153.81;;;13.10;82.30
23176;BME280;19910;42.652;23.332;2022-10-26T04:59:51;95158.78;;;13.08;82.27
23176;BME280;19910;42.652;23.332;2022-10-26T05:02:18;95155.88;;;13.13;81.79
23176;BME280;19910;42.652;23.332;2022-10-26T05:04:47;95156.66;;;13.22;80.97
23176;BME280;19910;42.652;23.332;2022-10-26T05:07:14;95161.63;;;13.20;80.95
23176;BME280;19910;42.652;23.332;2022-10-26T05:09:41;95159.03;;;13.24;80.95
23176;BME280;19910;42.652;23.332;2022-10-26T05:12:07;95161.84;;;13.36;80.27
23176;BME280;19910;42.652;23.332;2022-10-26T05:14:34;95166.88;;;13.46;79.98
23176;BME280;19910;42.652;23.332;2022-10-26T05:17:01;95154.63;;;13.73;78.92
23176;BME280;19910;42.652;23.332;2022-10-26T05:19:28;95143.47;;;13.99;78.03
23176;BME280;19910;42.652;23.332;2022-10-26T05:21:56;95149.16;;;13.94;78.23
23176;BME280;19910;42.652;23.332;2022-10-26T05:24:23;95145.84;;;13.88;78.64
23176;BME280;19910;42.652;23.332;2022-10-26T05:26:49;95149.25;;;13.97;78.64
23176;BME280;19910;42.652;23.332;2022-10-26T05:29:16;95146.91;;;14.53;76.68
23176;BME280;19910;42.652;23.332;2022-10-26T05:31:43;95151.59;;;14.89;74.85
23176;BME280;19910;42.652;23.332;2022-10-26T05:34:10;95160.13;;;14.87;74.90
23176;BME280;19910;42.652;23.332;2022-10-26T05:36:37;95162.81;;;15.24;73.39
23176;BME280;19910;42.652;23.332;2022-10-26T05:39:05;95162.91;;;15.80;70.99
23176;BME280;19910;42.652;23.332;2022-10-26T05:41:32;95172.94;;;16.04;70.00
23176;BME280;19910;42.652;23.332;2022-10-26T05:43:59;95169.97;;;16.68;67.95
23176;BME280;19910;42.652;23.332;2022-10-26T05:46:26;95169.22;;;16.55;67.79
23176;BME280;19910;42.652;23.332;2022-10-26T05:48:52;95171.78;;;17.11;66.22
23176;BME280;19910;42.652;23.332;2022-10-26T05:51:21;95174.91;;;17.80;64.09
23176;BME280;19910;42.652;23.332;2022-10-26T05:53:50;95190.63;;;16.97;66.20
23176;BME280;19910;42.652;23.332;2022-10-26T05:56:32;95180.88;;;17.31;65.22
23176;BME280;19910;42.652;23.332;2022-10-26T05:59:00;95190.31;;;18.03;63.50
23176;BME280;19910;42.652;23.332;2022-10-26T06:01:34;95184.38;;;18.63;61.56
23176;BME280;19910;42.652;23.332;2022-10-26T06:04:16;95175.06;;;18.90;60.85
23176;BME280;19910;42.652;23.332;2022-10-26T06:06:50;95176.03;;;18.78;60.71
23176;BME280;19910;42.652;23.332;2022-10-26T06:09:18;95188.22;;;19.27;59.53
23176;BME280;19910;42.652;23.332;2022-10-26T06:11:47;95191.34;;;19.29;59.00
23176;BME280;19910;42.652;23.332;2022-10-26T06:14:15;95186.81;;;19.13;59.33
23176;BME280;19910;42.652;23.332;2022-10-26T06:16:53;95197.41;;;19.38;58.71
23176;BME280;19910;42.652;23.332;2022-10-26T06:19:31;95186.69;;;19.06;59.28
23176;BME280;19910;42.652;23.332;2022-10-26T06:22:15;95190.59;;;19.05;59.56
23176;BME280;19910;42.652;23.332;2022-10-26T06:24:53;95196.75;;;18.34;61.60
23176;BME280;19910;42.652;23.332;2022-10-26T06:27:29;95201.47;;;18.14;62.44
23176;BME280;19910;42.652;23.332;2022-10-26T06:30:01;95202.47;;;17.87;62.82
23176;BME280;19910;42.652;23.332;2022-10-26T06:32:29;95206.78;;;17.68;63.80
23176;BME280;19910;42.652;23.332;2022-10-26T06:35:01;95211.28;;;17.96;63.35
23176;BME280;19910;42.652;23.332;2022-10-26T06:37:35;95209.38;;;17.81;63.54
23176;BME280;19910;42.652;23.332;2022-10-26T06:40:04;95210.06;;;17.08;65.80
23176;BME280;19910;42.652;23.332;2022-10-26T06:42:33;95206.19;;;16.77;66.67
23176;BME280;19910;42.652;23.332;2022-10-26T06:45:01;95199.63;;;16.66;67.17
23176;BME280;19910;42.652;23.332;2022-10-26T06:47:32;95207.56;;;16.71;67.60
23176;BME280;19910;42.652;23.332;2022-10-26T06:50:08;95211.41;;;16.39;68.72
23176;BME280;19910;42.652;23.332;2022-10-26T06:52:41;95213.69;;;16.09;69.61
23176;BME280;19910;42.652;23.332;2022-10-26T06:55:12;95220.66;;;16.06;69.96
23176;BME280;19910;42.652;23.332;2022-10-26T06:57:42;95229.28;;;16.08;70.28
23176;BME280;19910;42.652;23.332;2022-10-26T07:00:15;95231.44;;;15.75;70.71
23176;BME280;19910;42.652;23.332;2022-10-26T07:02:44;95232.34;;;15.79;70.72
23176;BME280;19910;42.652;23.332;2022-10-26T07:05:11;95221.34;;;16.03;70.63
23176;BME280;19910;42.652;23.332;2022-10-26T07:07:40;95236.75;;;15.95;70.28
23176;BME280;19910;42.652;23.332;2022-10-26T07:10:08;95247.97;;;16.06;70.42
23176;BME280;19910;42.652;23.332;2022-10-26T07:12:35;95246.88;;;15.95;70.55
23176;BME280;19910;42.652;23.332;2022-10-26T07:15:04;95243.88;;;16.00;70.46
23176;BME280;19910;42.652;23.332;2022-10-26T07:17:41;95242.50;;;16.06;70.23
23176;BME280;19910;42.652;23.332;2022-10-26T07:20:08;95234.06;;;16.11;70.12
23176;BME280;19910;42.652;23.332;2022-10-26T07:22:35;95230.44;;;16.07;70.17
23176;BME280;19910;42.652;23.332;2022-10-26T07:25:02;95240.81;;;16.29;69.37
23176;BME280;19910;42.652;23.332;2022-10-26T07:27:29;95231.47;;;16.30;69.50
23176;BME280;19910;42.652;23.332;2022-10-26T07:29:56;95241.47;;;16.39;69.29
23176;BME280;19910;42.652;23.332;2022-10-26T07:32:24;95227.16;;;16.29;69.29
23176;BME280;19910;42.652;23.332;2022-10-26T07:34:51;95229.47;;;16.43;68.96
23176;BME280;19910;42.652;23.332;2022-10-26T07:37:17;95229.47;;;16.43;68.91
23176;BME280;19910;42.652;23.332;2022-10-26T07:39:44;95230.69;;;16.30;69.08
23176;BME280;19910;42.652;23.332;2022-10-26T07:42:11;95233.16;;;16.35;68.76
23176;BME280;19910;42.652;23.332;2022-10-26T07:44:38;95219.97;;;16.53;68.29
23176;BME280;19910;42.652;23.332;2022-10-26T07:47:04;95228.75;;;16.74;67.36
23176;BME280;19910;42.652;23.332;2022-10-26T07:49:32;95228.59;;;16.67;67.58
23176;BME280;19910;42.652;23.332;2022-10-26T07:51:59;95220.91;;;16.73;67.33
23176;BME280;19910;42.652;23.332;2022-10-26T07:54:26;95217.28;;;16.84;67.28
23176;BME280;19910;42.652;23.332;2022-10-26T07:56:53;95220.13;;;17.03;66.98
23176;BME280;19910;42.652;23.332;2022-10-26T07:59:20;95211.69;;;17.28;65.90
23176;BME280;19910;42.652;23.332;2022-10-26T08:01:46;95212.50;;;17.13;65.87
23176;BME280;19910;42.652;23.332;2022-10-26T08:04:13;95221.16;;;17.15;64.66
23176;BME280;19910;42.652;23.332;2022-10-26T08:06:41;95213.72;;;17.31;64.56
23176;BME280;19910;42.652;23.332;2022-10-26T08:09:08;95213.94;;;17.57;63.91
23176;BME280;19910;42.652;23.332;2022-10-26T08:11:35;95218.97;;;17.55;63.95
23176;BME280;19910;42.652;23.332;2022-10-26T08:14:02;95218.88;;;17.67;63.42
23176;BME280;19910;42.652;23.332;2022-10-26T08:16:29;95229.41;;;17.65;64.19
23176;BME280;19910;42.652;23.332;2022-10-26T08:18:56;95216.72;;;17.41;64.36
23176;BME280;19910;42.652;23.332;2022-10-26T08:21:23;95210.31;;;17.53;64.03
23176;BME280;19910;42.652;23.332;2022-10-26T08:23:51;95220.41;;;17.65;64.16
23176;BME280;19910;42.652;23.332;2022-10-26T08:26:19;95220.72;;;17.98;63.04
23176;BME280;19910;42.652;23.332;2022-10-26T08:28:47;95219.97;;;18.17;62.97
23176;BME280;19910;42.652;23.332;2022-10-26T08:31:15;95216.78;;;18.15;63.11
23176;BME280;19910;42.652;23.332;2022-10-26T08:33:42;95211.28;;;17.96;63.61
23176;BME280;19910;42.652;23.332;2022-10-26T08:36:09;95214.28;;;17.91;62.94
23176;BME280;19910;42.652;23.332;2022-10-26T08:38:36;95215.03;;;17.88;63.65
23176;BME280;19910;42.652;23.332;2022-10-26T08:41:09;95216.94;;;18.03;63.50
23176;BME280;19910;42.652;23.332;2022-10-26T08:43:39;95217.22;;;18.17;62.76
23176;BME280;19910;42.652;23.332;2022-10-26T08:46:10;95210.56;;;17.99;62.30
23176;BME280;19910;42.652;23.332;2022-10-26T08:48:42;95214.81;;;17.96;62.99
23176;BME280;19910;42.652;23.332;2022-10-26T08:51:13;95213.28;;;18.18;61.50
23176;BME280;19910;42.652;23.332;2022-10-26T08:53:46;95204.47;;;18.47;62.10
23176;BME280;19910;42.652;23.332;2022-10-26T08:56:20;95211.09;;;18.66;60.35
23176;BME280;19910;42.652;23.332;2022-10-26T08:58:52;95215.88;;;18.69;59.78
23176;BME280;19910;42.652;23.332;2022-10-26T09:01:21;95213.28;;;18.57;59.21
23176;BME280;19910;42.652;23.332;2022-10-26T09:03:48;95215.88;;;18.69;58.57
23176;BME280;19910;42.652;23.332;2022-10-26T09:06:21;95208.91;;;18.75;59.20
23176;BME280;19910;42.652;23.332;2022-10-26T09:08:55;95211.97;;;18.70;59.32
23176;BME280;19910;42.652;23.332;2022-10-26T09:11:36;95218.56;;;18.88;59.13
23176;BME280;19910;42.652;23.332;2022-10-26T09:14:12;95208.78;;;18.68;58.66
23176;BME280;19910;42.652;23.332;2022-10-26T09:16:52;95210.25;;;18.62;58.76
23176;BME280;19910;42.652;23.332;2022-10-26T09:19:36;95207.94;;;18.64;59.68
23176;BME280;19910;42.652;23.332;2022-10-26T09:22:13;95206.44;;;19.15;57.28
23176;BME280;19910;42.652;23.332;2022-10-26T09:24:49;95205.22;;;19.36;56.89
23176;BME280;19910;42.652;23.332;2022-10-26T09:27:23;95204.50;;;19.39;56.01
23176;BME280;19910;42.652;23.332;2022-10-26T09:29:52;95207.06;;;19.51;55.05
23176;BME280;19910;42.652;23.332;2022-10-26T09:32:24;95197.84;;;19.66;51.84
23176;BME280;19910;42.652;23.332;2022-10-26T09:34:54;95207.78;;;19.74;52.13
23176;BME280;19910;42.652;23.332;2022-10-26T09:37:27;95203.16;;;19.52;54.74
23176;BME280;19910;42.652;23.332;2022-10-26T09:39:58;95211.16;;;19.64;55.16
23176;BME280;19910;42.652;23.332;2022-10-26T09:42:36;95201.41;;;19.70;55.25
23176;BME280;19910;42.652;23.332;2022-10-26T09:45:12;95199.22;;;20.13;54.64
23176;BME280;19910;42.652;23.332;2022-10-26T09:47:43;95192.44;;;19.73;54.26
23176;BME280;19910;42.652;23.332;2022-10-26T09:50:17;95191.44;;;19.59;55.30
23176;BME280;19910;42.652;23.332;2022-10-26T09:52:46;95188.25;;;19.53;55.07
23176;BME280;19910;42.652;23.332;2022-10-26T09:55:13;95192.22;;;19.59;54.49
23176;BME280;19910;42.652;23.332;2022-10-26T09:57:44;95187.78;;;19.77;55.02
23176;BME280;19910;42.652;23.332;2022-10-26T10:00:13;95188.53;;;19.74;53.10
23176;BME280;19910;42.652;23.332;2022-10-26T10:02:42;95180.16;;;19.94;52.28
23176;BME280;19910;42.652;23.332;2022-10-26T10:05:24;95172.88;;;19.78;49.67
23176;BME280;19910;42.652;23.332;2022-10-26T10:07:51;95176.91;;;19.58;50.93
23176;BME280;19910;42.652;23.332;2022-10-26T10:10:19;95176.09;;;19.54;52.35
23176;BME280;19910;42.652;23.332;2022-10-26T10:12:49;95182.81;;;19.60;52.26
23176;BME280;19910;42.652;23.332;2022-10-26T10:15:20;95170.00;;;20.01;51.11
23176;BME280;19910;42.652;23.332;2022-10-26T10:17:49;95166.16;;;20.06;50.99
23176;BME280;19910;42.652;23.332;2022-10-26T10:20:20;95163.22;;;20.25;50.76
23176;BME280;19910;42.652;23.332;2022-10-26T10:22:56;95165.88;;;19.84;50.60
23176;BME280;19910;42.652;23.332;2022-10-26T10:25:31;95159.63;;;19.87;50.45
23176;BME280;19910;42.652;23.332;2022-10-26T10:28:00;95166.47;;;19.71;51.00
23176;BME280;19910;42.652;23.332;2022-10-26T10:30:29;95160.53;;;19.99;51.20
23176;BME280;19910;42.652;23.332;2022-10-26T10:33:08;95163.78;;;20.04;50.40
23176;BME280;19910;42.652;23.332;2022-10-26T10:35:38;95156.00;;;20.13;50.35
23176;BME280;19910;42.652;23.332;2022-10-26T10:38:14;95149.03;;;20.23;50.53
23176;BME280;19910;42.652;23.332;2022-10-26T10:40:49;95143.38;;;20.42;50.74
23176;BME280;19910;42.652;23.332;2022-10-26T10:43:17;95147.31;;;20.41;50.57
23176;BME280;19910;42.652;23.332;2022-10-26T10:45:46;95146.38;;;20.64;49.93
23176;BME280;19910;42.652;23.332;2022-10-26T10:48:16;95141.91;;;20.96;48.81
23176;BME280;19910;42.652;23.332;2022-10-26T10:50:52;95135.38;;;21.15;49.00
23176;BME280;19910;42.652;23.332;2022-10-26T10:53:23;95143.38;;;20.83;48.99
23176;BME280;19910;42.652;23.332;2022-10-26T10:56:06;95138.81;;;21.05;48.34
23176;BME280;19910;42.652;23.332;2022-10-26T10:58:45;95133.16;;;21.35;48.79
23176;BME280;19910;42.652;23.332;2022-10-26T11:01:20;95127.81;;;21.63;48.42
23176;BME280;19910;42.652;23.332;2022-10-26T11:04:15;95129.81;;;21.66;48.34
23176;BME280;19910;42.652;23.332;2022-10-26T11:06:47;95124.28;;;21.66;48.75
23176;BME280;19910;42.652;23.332;2022-10-26T11:09:18;95121.88;;;21.54;48.42
23176;BME280;19910;42.652;23.332;2022-10-26T11:11:49;95114.69;;;21.39;48.81
23176;BME280;19910;42.652;23.332;2022-10-26T11:14:24;95110.03;;;21.50;49.22
23176;BME280;19910;42.652;23.332;2022-10-26T11:16:55;95124.91;;;20.87;49.81
23176;BME280;19910;42.652;23.332;2022-10-26T11:19:27;95118.53;;;20.76;49.98
23176;BME280;19910;42.652;23.332;2022-10-26T11:21:56;95119.13;;;20.99;49.68
23176;BME280;19910;42.652;23.332;2022-10-26T11:24:25;95121.53;;;21.04;49.55
23176;BME280;19910;42.652;23.332;2022-10-26T11:26:58;95118.25;;;20.88;49.67
23176;BME280;19910;42.652;23.332;2022-10-26T11:29:34;95123.84;;;20.99;49.86
23176;BME280;19910;42.652;23.332;2022-10-26T11:32:06;95120.53;;;20.82;49.82
23176;BME280;19910;42.652;23.332;2022-10-26T11:34:39;95117.28;;;21.17;49.39
23176;BME280;19910;42.652;23.332;2022-10-26T11:37:14;95109.06;;;21.21;48.86
23176;BME280;19910;42.652;23.332;2022-10-26T11:39:45;95113.19;;;21.52;48.42
23176;BME280;19910;42.652;23.332;2022-10-26T11:42:24;95104.41;;;21.28;47.76
23176;BME280;19910;42.652;23.332;2022-10-26T11:44:58;95104.34;;;21.21;47.67
23176;BME280;19910;42.652;23.332;2022-10-26T11:47:32;95094.16;;;21.33;47.24
23176;BME280;19910;42.652;23.332;2022-10-26T11:50:12;95103.66;;;21.39;46.41
23176;BME280;19910;42.652;23.332;2022-10-26T11:52:45;95114.25;;;21.30;45.56
23176;BME280;19910;42.652;23.332;2022-10-26T11:55:14;95099.25;;;21.27;45.29
23176;BME280;19910;42.652;23.332;2022-10-26T11:57:41;95098.09;;;21.28;44.89
23176;BME280;19910;42.652;23.332;2022-10-26T12:00:16;95100.47;;;21.30;45.40
23176;BME280;19910;42.652;23.332;2022-10-26T12:02:47;95090.63;;;21.36;44.83
23176;BME280;19910;42.652;23.332;2022-10-26T12:05:20;95096.41;;;21.16;44.33
23176;BME280;19910;42.652;23.332;2022-10-26T12:07:51;95094.84;;;21.15;44.58
23176;BME280;19910;42.652;23.332;2022-10-26T12:10:25;95083.91;;;21.26;44.83
23176;BME280;19910;42.652;23.332;2022-10-26T12:12:58;95088.03;;;21.64;44.57
23176;BME280;19910;42.652;23.332;2022-10-26T12:15:33;95092.72;;;21.60;43.58
23176;BME280;19910;42.652;23.332;2022-10-26T12:18:10;95091.53;;;21.54;42.82
23176;BME280;19910;42.652;23.332;2022-10-26T12:20:57;95091.47;;;21.40;42.91
23176;BME280;19910;42.652;23.332;2022-10-26T12:23:34;95093.31;;;21.21;42.86
23176;BME280;19910;42.652;23.332;2022-10-26T12:26:37;95097.25;;;21.20;42.62
23176;BME280;19910;42.652;23.332;2022-10-26T12:29:34;95090.22;;;21.26;42.15
23176;BME280;19910;42.652;23.332;2022-10-26T12:35:35;95088.53;;;21.15;42.04
23176;BME280;19910;42.652;23.332;2022-10-26T12:41:18;95092.88;;;21.16;42.17
23176;BME280;19910;42.652;23.332;2022-10-26T12:43:46;95089.22;;;21.01;41.93
23176;BME280;19910;42.652;23.332;2022-10-26T12:46:41;95085.41;;;21.16;42.05
23176;BME280;19910;42.652;23.332;2022-10-26T12:52:26;95095.31;;;21.24;41.74
23176;BME280;19910;42.652;23.332;2022-10-26T12:55:15;95087.34;;;21.16;42.25
23176;BME280;19910;42.652;23.332;2022-10-26T12:57:51;95090.41;;;21.00;41.97
23176;BME280;19910;42.652;23.332;2022-10-26T13:00:22;95091.59;;;21.06;41.43
23176;BME280;19910;42.652;23.332;2022-10-26T13:03:01;95092.34;;;21.00;41.67
23176;BME280;19910;42.652;23.332;2022-10-26T13:08:45;95087.81;;;21.21;40.84
23176;BME280;19910;42.652;23.332;2022-10-26T13:11:16;95096.34;;;21.09;40.63
23176;BME280;19910;42.652;23.332;2022-10-26T13:13:44;95101.56;;;21.21;40.29
23176;BME280;19910;42.652;23.332;2022-10-26T13:16:18;95105.19;;;21.29;39.61
23176;BME280;19910;42.652;23.332;2022-10-26T13:18:45;95084.59;;;21.16;39.47
23176;BME280;19910;42.652;23.332;2022-10-26T13:21:15;95093.34;;;21.25;39.39
23176;BME280;19910;42.652;23.332;2022-10-26T13:23:44;95092.50;;;21.17;38.61